Time;durP1;ratioP1;P1;durP2;ratioP2;P2;SDS_P1;SDS_P2;PMS_P1;PMS_P2;Temp;Humidity;BMP_temperature;BMP_pressure;BME280_temperature;BME280_humidity;BME280_pressure;Samples;Min_cycle;Max_cycle;Signal;HPM_P1;HPM_P2
2023/03/25 00:00:23;;;;;;;1.80;1.17;;;16.10;57.20;;;;;;5055159;28;20171;-59
2023/03/25 00:02:49;;;;;;;2.33;1.02;;;16.10;57.20;;;;;;5054147;28;20572;-59
2023/03/25 00:05:16;;;;;;;1.55;1.13;;;16.00;57.10;;;;;;5055371;28;20228;-59
2023/03/25 00:07:43;;;;;;;3.08;1.38;;;16.00;57.10;;;;;;5054867;28;20194;-59
2023/03/25 00:10:09;;;;;;;2.05;1.20;;;16.00;57.10;;;;;;5054925;28;20171;-59
2023/03/25 00:12:34;;;;;;;2.17;1.30;;;16.10;57.20;;;;;;5054979;28;20264;-59
2023/03/25 00:15:00;;;;;;;1.00;0.90;;;16.00;57.10;;;;;;5054081;28;20587;-59
2023/03/25 00:17:27;;;;;;;2.33;1.30;;;16.10;57.20;;;;;;5055007;28;20649;-59
2023/03/25 00:19:54;;;;;;;2.03;1.08;;;16.10;57.20;;;;;;5054449;28;20293;-60
2023/03/25 00:22:20;;;;;;;2.65;1.20;;;16.00;57.10;;;;;;5054280;28;20187;-59
2023/03/25 00:24:45;;;;;;;2.30;0.95;;;16.10;57.10;;;;;;5054585;28;20175;-59
2023/03/25 00:27:13;;;;;;;1.85;1.17;;;16.10;57.10;;;;;;5054602;28;20282;-59
2023/03/25 00:29:39;;;;;;;2.40;1.52;;;16.00;57.10;;;;;;5054084;28;20225;-59
2023/03/25 00:32:05;;;;;;;1.83;1.17;;;16.00;57.10;;;;;;5054394;28;20205;-59
2023/03/25 00:34:30;;;;;;;1.63;1.20;;;16.00;57.00;;;;;;5054714;28;20179;-59
2023/03/25 00:36:56;;;;;;;1.55;1.20;;;16.00;57.10;;;;;;5053688;28;20186;-59
2023/03/25 00:39:21;;;;;;;2.55;1.52;;;16.00;57.00;;;;;;5054606;28;20179;-59
2023/03/25 00:41:47;;;;;;;1.30;1.20;;;16.00;57.10;;;;;;5053264;28;20680;-59
2023/03/25 00:44:13;;;;;;;3.25;1.25;;;16.00;57.10;;;;;;5053849;28;20179;-59
2023/03/25 00:46:38;;;;;;;2.35;1.27;;;16.00;57.10;;;;;;5054487;28;20183;-59
2023/03/25 00:49:04;;;;;;;2.03;1.35;;;16.00;57.00;;;;;;5054450;28;20172;-59
2023/03/25 00:51:32;;;;;;;1.73;1.10;;;16.00;57.10;;;;;;5053727;28;20236;-59
2023/03/25 00:54:02;;;;;;;1.98;1.02;;;16.00;57.10;;;;;;5053990;28;20633;-59
2023/03/25 00:56:28;;;;;;;1.92;1.05;;;16.00;57.00;;;;;;5054395;28;20258;-58
2023/03/25 00:58:54;;;;;;;2.42;1.08;;;16.00;57.00;;;;;;5053191;28;20258;-59
2023/03/25 01:01:25;;;;;;;1.00;0.93;;;15.90;56.90;;;;;;5054121;28;20582;-59
2023/03/25 01:03:56;;;;;;;2.95;1.38;;;16.00;57.10;;;;;;5053908;28;20237;-59
2023/03/25 01:06:23;;;;;;;3.72;1.58;;;16.00;57.00;;;;;;5053720;28;20183;-58
2023/03/25 01:08:50;;;;;;;1.42;1.10;;;15.90;57.00;;;;;;5053733;28;20640;-59
2023/03/25 01:11:22;;;;;;;2.70;1.02;;;15.90;57.00;;;;;;5051838;28;20198;-57
2023/03/25 01:13:47;;;;;;;1.60;1.00;;;16.00;57.10;;;;;;5053772;28;20190;-58
2023/03/25 01:16:13;;;;;;;1.83;1.30;;;16.00;57.00;;;;;;5054060;28;20171;-59
2023/03/25 01:18:39;;;;;;;1.60;1.27;;;16.00;56.90;;;;;;5053374;28;20278;-59
2023/03/25 01:21:05;;;;;;;1.75;1.08;;;16.00;57.00;;;;;;5053514;28;20233;-59
2023/03/25 01:23:31;;;;;;;1.52;1.05;;;15.90;57.00;;;;;;5054053;28;20258;-59
2023/03/25 01:25:56;;;;;;;2.53;1.33;;;15.90;56.90;;;;;;5052718;28;20603;-59
2023/03/25 01:28:22;;;;;;;1.80;1.13;;;15.90;56.90;;;;;;5053686;28;20171;-59
2023/03/25 01:30:47;;;;;;;3.20;1.00;;;16.00;57.00;;;;;;5053283;28;20174;-59
2023/03/25 01:33:13;;;;;;;3.25;1.52;;;15.90;56.90;;;;;;5052947;28;20218;-59
2023/03/25 01:35:38;;;;;;;1.92;1.13;;;15.90;57.00;;;;;;5053653;28;20171;-59
2023/03/25 01:38:04;;;;;;;3.38;1.17;;;15.90;57.10;;;;;;5053330;28;20171;-59
2023/03/25 01:40:29;;;;;;;1.75;1.23;;;15.90;56.90;;;;;;5052843;28;20182;-59
2023/03/25 01:42:55;;;;;;;2.22;1.48;;;15.90;56.90;;;;;;5053156;28;20176;-59
2023/03/25 01:45:31;;;;;;;2.58;1.38;;;15.90;56.90;;;;;;5053383;28;20606;-59
2023/03/25 01:48:09;;;;;;;2.33;0.98;;;15.90;56.90;;;;;;5052628;28;20183;-60
2023/03/25 01:50:36;;;;;;;2.30;1.17;;;15.90;56.80;;;;;;5052268;28;20179;-59
2023/03/25 01:53:02;;;;;;;1.92;1.00;;;15.90;56.80;;;;;;5051418;28;20219;-59
2023/03/25 01:55:29;;;;;;;2.35;1.25;;;15.90;56.90;;;;;;5051199;28;20274;-59
2023/03/25 01:57:55;;;;;;;3.03;1.50;;;15.90;56.90;;;;;;5035290;28;20188;-59
2023/03/25 02:00:21;;;;;;;2.70;0.93;;;15.90;56.80;;;;;;5051334;28;20259;-59
2023/03/25 02:02:47;;;;;;;2.70;1.38;;;15.80;56.80;;;;;;5052930;28;20171;-59
2023/03/25 02:05:38;;;;;;;3.38;1.45;;;15.90;56.80;;;;;;5053130;28;20297;-59
2023/03/25 02:08:04;;;;;;;1.73;0.90;;;15.90;56.80;;;;;;5046206;28;20189;-59
2023/03/25 02:10:30;;;;;;;1.45;1.30;;;15.90;56.80;;;;;;5052847;28;20187;-59
2023/03/25 02:12:56;;;;;;;2.28;1.17;;;15.90;56.80;;;;;;5052542;28;20221;-57
2023/03/25 02:15:22;;;;;;;1.58;1.25;;;15.90;56.80;;;;;;5050838;28;20629;-59
2023/03/25 02:18:09;;;;;;;1.38;1.05;;;15.90;56.80;;;;;;5051263;28;20179;-59
2023/03/25 02:20:40;;;;;;;2.83;1.48;;;15.90;56.80;;;;;;5051125;28;20364;-59
2023/03/25 02:23:27;;;;;;;2.35;1.27;;;15.90;56.80;;;;;;5051848;28;20171;-59
2023/03/25 02:25:55;;;;;;;2.72;1.35;;;15.80;56.70;;;;;;5052416;28;20650;-58
2023/03/25 02:28:35;;;;;;;3.47;1.30;;;15.80;56.80;;;;;;5052490;28;20637;-59
2023/03/25 02:31:27;;;;;;;3.65;1.67;;;15.80;56.80;;;;;;5036018;28;20592;-60
2023/03/25 02:34:20;;;;;;;1.95;1.42;;;15.80;56.70;;;;;;5051326;28;20190;-59
2023/03/25 02:37:26;;;;;;;4.60;1.20;;;15.80;56.80;;;;;;5051404;28;20175;-59
2023/03/25 02:39:59;;;;;;;1.65;1.15;;;15.80;56.80;;;;;;5051220;28;20186;-59
2023/03/25 02:42:27;;;;;;;2.88;1.15;;;15.80;56.70;;;;;;5035083;28;20284;-59
2023/03/25 02:44:55;;;;;;;2.42;1.00;;;15.80;56.70;;;;;;5051742;28;20633;-59
2023/03/25 02:47:22;;;;;;;2.97;1.48;;;15.80;56.70;;;;;;5051061;28;20305;-59
2023/03/25 02:49:53;;;;;;;2.20;1.05;;;15.80;56.80;;;;;;5033760;28;20205;-59
2023/03/25 02:52:27;;;;;;;3.17;1.17;;;15.80;56.90;;;;;;5035151;28;20266;-58
2023/03/25 02:54:56;;;;;;;1.35;1.23;;;15.80;56.90;;;;;;5050716;28;20190;-59
2023/03/25 02:57:22;;;;;;;2.13;1.20;;;15.80;56.80;;;;;;5050195;28;20183;-59
2023/03/25 02:59:47;;;;;;;3.08;1.20;;;15.70;56.80;;;;;;5034182;28;20175;-59
2023/03/25 03:02:13;;;;;;;3.67;1.30;;;15.80;56.90;;;;;;5050794;28;20194;-60
2023/03/25 03:04:50;;;;;;;3.40;1.40;;;15.80;56.90;;;;;;5036120;28;20202;-59
2023/03/25 03:07:23;;;;;;;2.78;1.42;;;15.70;56.90;;;;;;5056428;28;20606;-59
2023/03/25 03:10:12;;;;;;;1.90;1.00;;;15.80;56.90;;;;;;5038760;28;20175;-59
2023/03/25 03:12:56;;;;;;;2.20;1.50;;;15.80;57.00;;;;;;5054555;28;20207;-59
2023/03/25 03:15:21;;;;;;;1.90;1.48;;;15.80;56.90;;;;;;5056211;28;20175;-59
2023/03/25 03:17:59;;;;;;;3.55;1.17;;;15.70;56.90;;;;;;5055143;28;20205;-58
2023/03/25 03:20:48;;;;;;;3.47;1.40;;;15.70;56.90;;;;;;5055812;28;20309;-58
2023/03/25 03:23:27;;;;;;;1.95;1.05;;;15.70;56.80;;;;;;5056134;28;20202;-58
2023/03/25 03:25:55;;;;;;;2.72;1.30;;;15.70;56.90;;;;;;5037651;28;20174;-59
2023/03/25 03:28:31;;;;;;;1.70;1.10;;;15.80;57.00;;;;;;5055846;28;20259;-59
2023/03/25 03:30:59;;;;;;;2.33;1.27;;;15.70;57.00;;;;;;5054708;28;20179;-59
2023/03/25 03:33:52;;;;;;;2.38;1.25;;;15.70;57.00;;;;;;5054969;28;20207;-59
2023/03/25 03:36:25;;;;;;;2.10;1.13;;;15.70;56.90;;;;;;5054292;28;20175;-58
2023/03/25 03:39:06;;;;;;;2.30;1.17;;;15.70;57.00;;;;;;5053429;28;20175;-59
2023/03/25 03:41:33;;;;;;;1.75;1.02;;;15.70;57.00;;;;;;5038406;28;20225;-59
2023/03/25 03:44:07;;;;;;;2.92;1.20;;;15.70;57.00;;;;;;5054030;28;20211;-59
2023/03/25 03:46:37;;;;;;;1.40;1.10;;;15.70;56.90;;;;;;5054972;28;20179;-59
2023/03/25 03:49:03;;;;;;;4.13;1.15;;;15.70;57.00;;;;;;5055316;28;20262;-59
2023/03/25 03:51:42;;;;;;;2.13;1.35;;;15.70;57.00;;;;;;5054196;28;20630;-59
2023/03/25 03:54:17;;;;;;;1.38;0.90;;;15.70;57.00;;;;;;5053486;28;20657;-58
2023/03/25 03:56:52;;;;;;;2.33;1.27;;;15.70;57.00;;;;;;5037128;28;20645;-59
2023/03/25 03:59:36;;;;;;;2.45;1.10;;;15.70;57.00;;;;;;5038926;28;20183;-59
2023/03/25 04:02:06;;;;;;;1.30;1.20;;;15.70;57.00;;;;;;5054147;28;20175;-59
2023/03/25 04:04:33;;;;;;;2.72;1.40;;;15.70;57.00;;;;;;5053974;28;20186;-60
2023/03/25 04:07:10;;;;;;;1.42;0.90;;;15.70;57.00;;;;;;5054345;28;20179;-59
2023/03/25 04:10:01;;;;;;;2.13;1.20;;;15.70;57.00;;;;;;5054129;28;20175;-59
2023/03/25 04:12:31;;;;;;;3.70;1.50;;;15.70;57.00;;;;;;5054068;28;20294;-59
2023/03/25 04:14:59;;;;;;;1.60;1.42;;;15.70;57.00;;;;;;5052634;28;20180;-59
2023/03/25 04:17:28;;;;;;;2.72;1.00;;;15.70;57.00;;;;;;5054983;28;20175;-59
2023/03/25 04:19:54;;;;;;;2.03;1.40;;;15.60;56.90;;;;;;5054411;28;20673;-59
2023/03/25 04:22:20;;;;;;;1.23;0.90;;;15.60;56.90;;;;;;5054305;28;20252;-59
2023/03/25 04:24:48;;;;;;;2.60;1.38;;;15.60;56.90;;;;;;5054622;28;20294;-59
2023/03/25 04:27:15;;;;;;;2.90;1.10;;;15.60;56.90;;;;;;5054813;28;20634;-59
2023/03/25 04:29:42;;;;;;;2.08;1.30;;;15.60;56.90;;;;;;5053994;28;20187;-59
2023/03/25 04:32:09;;;;;;;2.35;1.08;;;15.70;57.00;;;;;;5054932;28;20294;-58
2023/03/25 04:34:35;;;;;;;2.13;1.10;;;15.60;56.90;;;;;;5053604;28;20179;-58
2023/03/25 04:37:00;;;;;;;1.75;1.20;;;15.60;56.90;;;;;;5053667;28;20204;-58
2023/03/25 04:39:28;;;;;;;1.55;1.10;;;15.60;56.90;;;;;;5054650;28;20266;-59
2023/03/25 04:41:55;;;;;;;3.85;1.63;;;15.60;56.90;;;;;;5054227;28;20552;-59
2023/03/25 04:44:22;;;;;;;2.20;1.10;;;15.50;56.90;;;;;;5053775;28;20183;-58
2023/03/25 04:46:47;;;;;;;1.50;1.05;;;15.60;56.90;;;;;;5054207;28;20175;-59
2023/03/25 04:49:20;;;;;;;1.17;0.90;;;15.60;57.00;;;;;;5052533;28;20200;-59
2023/03/25 04:51:48;;;;;;;2.97;1.15;;;15.60;57.00;;;;;;5054139;28;20211;-58
2023/03/25 04:54:14;;;;;;;1.73;1.10;;;15.60;56.90;;;;;;5054419;28;20191;-58
2023/03/25 04:56:40;;;;;;;3.08;1.50;;;15.60;56.90;;;;;;5053512;28;20179;-58
2023/03/25 04:59:05;;;;;;;2.03;1.40;;;15.60;56.90;;;;;;5054038;28;20175;-59
2023/03/25 05:01:31;;;;;;;2.45;1.23;;;15.60;56.90;;;;;;5054223;28;20181;-58
2023/03/25 05:04:03;;;;;;;3.17;1.33;;;15.60;57.00;;;;;;5035532;28;20176;-58
2023/03/25 05:06:33;;;;;;;2.67;1.30;;;15.60;56.90;;;;;;5054172;28;20198;-59
2023/03/25 05:09:00;;;;;;;4.18;1.10;;;15.60;56.90;;;;;;5053718;28;20179;-58
2023/03/25 05:11:27;;;;;;;1.73;1.30;;;15.50;56.90;;;;;;5053411;28;20183;-58
2023/03/25 05:13:52;;;;;;;2.95;1.30;;;15.50;57.00;;;;;;5053723;28;20241;-58
2023/03/25 05:16:18;;;;;;;3.40;1.38;;;15.60;56.90;;;;;;5054239;28;20583;-58
2023/03/25 05:18:44;;;;;;;2.47;1.33;;;15.60;56.90;;;;;;5052915;28;20171;-59
2023/03/25 05:21:10;;;;;;;1.67;1.20;;;15.50;56.90;;;;;;5053640;28;20321;-58
2023/03/25 05:23:35;;;;;;;2.05;1.15;;;15.50;56.90;;;;;;5053743;28;20183;-58
2023/03/25 05:26:02;;;;;;;3.33;1.25;;;15.50;56.90;;;;;;5052761;28;20185;-59
2023/03/25 05:28:28;;;;;;;1.55;1.27;;;15.60;57.00;;;;;;5053312;28;20167;-58
2023/03/25 05:30:53;;;;;;;3.03;1.25;;;15.50;56.90;;;;;;5053474;28;20196;-58
2023/03/25 05:33:19;;;;;;;3.40;1.42;;;15.50;57.00;;;;;;5052849;28;20221;-58
2023/03/25 05:35:45;;;;;;;1.70;1.23;;;15.50;56.90;;;;;;5053405;28;20228;-58
2023/03/25 05:38:11;;;;;;;3.58;1.58;;;15.50;57.00;;;;;;5053422;28;20246;-58
2023/03/25 05:40:37;;;;;;;2.40;1.60;;;15.50;56.90;;;;;;5052914;28;20227;-59
2023/03/25 05:43:02;;;;;;;4.57;1.85;;;15.50;56.90;;;;;;5053390;28;20202;-59
2023/03/25 05:45:28;;;;;;;2.60;1.48;;;15.50;56.90;;;;;;5053041;28;20225;-59
2023/03/25 05:47:54;;;;;;;2.22;1.50;;;15.50;56.90;;;;;;5053017;28;20195;-59
2023/03/25 05:50:20;;;;;;;3.95;1.60;;;15.50;57.00;;;;;;5053158;28;20183;-58
2023/03/25 05:52:48;;;;;;;1.55;1.23;;;15.50;56.90;;;;;;5052081;28;20572;-58
2023/03/25 05:55:18;;;;;;;3.00;1.60;;;15.50;56.90;;;;;;5053420;28;20178;-58
2023/03/25 05:57:43;;;;;;;3.55;1.80;;;15.50;56.90;;;;;;5053012;28;20183;-58
2023/03/25 06:00:10;;;;;;;3.40;1.92;;;15.50;56.90;;;;;;5052375;28;20621;-59
2023/03/25 06:02:45;;;;;;;3.35;1.60;;;15.50;56.90;;;;;;5053180;28;20182;-59
2023/03/25 06:05:14;;;;;;;1.92;1.50;;;15.50;57.00;;;;;;5053043;28;20174;-58
2023/03/25 06:07:41;;;;;;;2.70;1.42;;;15.50;56.90;;;;;;5052093;28;20604;-58
2023/03/25 06:10:10;;;;;;;3.25;1.50;;;15.60;56.90;;;;;;5053114;28;20175;-58
2023/03/25 06:12:37;;;;;;;2.45;1.40;;;15.60;56.70;;;;;;5052909;28;20234;-58
2023/03/25 06:15:06;;;;;;;2.38;1.38;;;15.60;56.60;;;;;;5051792;28;20182;-58
2023/03/25 06:17:32;;;;;;;2.55;1.40;;;15.70;56.50;;;;;;5052744;28;20174;-58
2023/03/25 06:19:59;;;;;;;3.30;1.40;;;15.70;56.40;;;;;;5052123;28;20229;-58
2023/03/25 06:22:25;;;;;;;2.38;1.38;;;15.70;56.50;;;;;;5052202;28;20211;-58
2023/03/25 06:24:51;;;;;;;3.60;1.67;;;15.70;56.50;;;;;;5052609;28;20175;-59
2023/03/25 06:27:17;;;;;;;3.10;1.50;;;15.70;56.50;;;;;;5052711;28;20702;-58
2023/03/25 06:29:42;;;;;;;4.07;1.52;;;15.70;56.50;;;;;;5051669;28;20175;-58
2023/03/25 06:32:08;;;;;;;2.97;1.67;;;15.70;56.50;;;;;;5052594;28;20236;-58
2023/03/25 06:34:34;;;;;;;1.85;1.40;;;15.70;56.50;;;;;;5051889;28;20179;-59
2023/03/25 06:37:00;;;;;;;2.72;1.60;;;15.70;56.50;;;;;;5052327;28;20630;-58
2023/03/25 06:39:26;;;;;;;3.88;1.60;;;15.70;56.50;;;;;;5051680;28;20182;-58
2023/03/25 06:41:52;;;;;;;1.95;1.15;;;15.60;56.50;;;;;;5051540;28;20262;-59
2023/03/25 06:44:17;;;;;;;2.15;1.90;;;15.60;56.60;;;;;;5052419;28;20258;-59
2023/03/25 06:46:43;;;;;;;2.63;1.35;;;15.60;56.60;;;;;;5052173;28;20191;-59
2023/03/25 06:49:08;;;;;;;2.83;1.25;;;15.60;56.70;;;;;;5051553;28;20178;-58
2023/03/25 06:51:34;;;;;;;1.80;1.42;;;15.60;56.80;;;;;;5052437;28;20187;-57
2023/03/25 06:53:59;;;;;;;2.67;1.48;;;15.60;56.80;;;;;;5052089;28;20186;-58
2023/03/25 06:56:25;;;;;;;2.42;1.30;;;15.60;56.80;;;;;;5051667;28;20170;-59
2023/03/25 06:58:50;;;;;;;3.17;1.40;;;15.50;56.90;;;;;;5052029;28;20521;-59
2023/03/25 07:01:16;;;;;;;2.17;1.48;;;15.50;56.90;;;;;;5052104;28;20253;-59
2023/03/25 07:03:42;;;;;;;3.13;1.60;;;15.60;56.90;;;;;;5051171;28;20190;-58
2023/03/25 07:06:08;;;;;;;2.92;1.52;;;15.60;56.90;;;;;;5051928;28;20272;-58
2023/03/25 07:08:34;;;;;;;2.05;1.58;;;15.70;56.70;;;;;;5050995;28;20183;-58
2023/03/25 07:11:03;;;;;;;2.28;1.30;;;15.70;56.70;;;;;;5051090;28;20193;-58
2023/03/25 07:13:30;;;;;;;1.88;1.13;;;15.90;56.60;;;;;;5051915;28;20222;-58
2023/03/25 07:15:56;;;;;;;1.42;1.33;;;16.00;56.30;;;;;;5051809;28;20250;-58
2023/03/25 07:18:21;;;;;;;2.05;1.55;;;16.20;56.20;;;;;;5051521;28;20214;-58
2023/03/25 07:20:47;;;;;;;3.25;1.52;;;16.30;56.00;;;;;;5051668;28;20628;-58
2023/03/25 07:23:13;;;;;;;1.90;1.45;;;16.50;55.60;;;;;;5051953;28;20175;-58
2023/03/25 07:25:38;;;;;;;1.83;1.30;;;16.70;55.40;;;;;;5051319;28;20688;-58
2023/03/25 07:28:04;;;;;;;2.20;1.25;;;16.90;55.10;;;;;;5051792;28;20691;-58
2023/03/25 07:30:30;;;;;;;2.47;1.30;;;17.20;54.60;;;;;;5051994;28;20175;-59
2023/03/25 07:32:55;;;;;;;1.60;1.30;;;17.30;54.40;;;;;;5050813;28;20203;-58
2023/03/25 07:35:21;;;;;;;1.85;1.33;;;17.40;54.20;;;;;;5051777;28;20163;-58
2023/03/25 07:37:46;;;;;;;1.98;1.30;;;17.50;54.00;;;;;;5051470;28;20183;-59
2023/03/25 07:40:12;;;;;;;1.92;1.20;;;17.60;53.90;;;;;;5051235;28;20194;-58
2023/03/25 07:42:37;;;;;;;2.35;1.20;;;17.70;53.70;;;;;;5051897;28;20179;-58
2023/03/25 07:45:04;;;;;;;1.35;1.20;;;17.70;53.60;;;;;;5051091;28;20517;-58
2023/03/25 07:47:30;;;;;;;2.45;1.63;;;17.70;53.60;;;;;;5052191;28;20183;-59
2023/03/25 07:49:55;;;;;;;3.25;1.30;;;17.80;53.70;;;;;;5053087;28;20178;-58
2023/03/25 07:52:21;;;;;;;1.98;1.17;;;17.80;53.60;;;;;;5055537;28;20662;-58
2023/03/25 07:54:46;;;;;;;3.78;1.17;;;17.70;53.60;;;;;;5055760;28;20175;-58
2023/03/25 07:57:12;;;;;;;2.50;1.25;;;17.70;53.80;;;;;;5056030;28;20312;-58
2023/03/25 07:59:38;;;;;;;2.95;1.10;;;17.60;54.60;;;;;;5054887;28;20175;-59
2023/03/25 08:02:03;;;;;;;2.40;1.30;;;17.60;54.70;;;;;;5054971;28;20186;-59
2023/03/25 08:04:29;;;;;;;2.85;1.20;;;17.50;54.20;;;;;;5055489;28;20205;-58
2023/03/25 08:06:55;;;;;;;2.42;1.20;;;17.50;54.20;;;;;;5054441;28;20182;-58
2023/03/25 08:09:20;;;;;;;2.17;1.23;;;17.50;54.30;;;;;;5055247;28;20676;-58
2023/03/25 08:11:46;;;;;;;3.33;1.42;;;17.50;54.40;;;;;;5054749;28;20614;-58
2023/03/25 08:14:12;;;;;;;2.58;1.23;;;17.50;54.30;;;;;;5054416;28;20650;-58
2023/03/25 08:16:37;;;;;;;2.88;1.08;;;17.50;55.00;;;;;;5055036;28;20254;-59
2023/03/25 08:19:03;;;;;;;3.40;1.25;;;17.60;54.90;;;;;;5054764;28;20642;-58
2023/03/25 08:21:29;;;;;;;1.88;1.30;;;17.50;54.40;;;;;;5054307;28;20171;-58
2023/03/25 08:24:01;;;;;;;1.85;1.30;;;17.50;54.40;;;;;;5054707;28;20171;-58
2023/03/25 08:26:27;;;;;;;2.75;1.73;;;17.60;54.80;;;;;;5054861;28;20258;-58
2023/03/25 08:28:56;;;;;;;2.65;1.35;;;17.50;54.40;;;;;;5053780;28;20220;-58
2023/03/25 08:31:25;;;;;;;1.27;0.88;;;17.50;54.40;;;;;;5054504;28;20317;-57
2023/03/25 08:33:51;;;;;;;1.95;1.00;;;17.50;54.50;;;;;;5054473;28;20294;-57
2023/03/25 08:36:18;;;;;;;2.28;1.23;;;17.40;54.60;;;;;;5053959;28;20246;-63
2023/03/25 08:38:45;;;;;;;3.53;1.52;;;17.50;55.50;;;;;;5054153;28;20179;-64
2023/03/25 08:41:10;;;;;;;2.58;1.48;;;17.50;55.00;;;;;;5053770;28;20270;-64
2023/03/25 08:43:36;;;;;;;3.00;1.20;;;17.40;55.30;;;;;;5054182;28;20258;-64
2023/03/25 08:46:01;;;;;;;2.47;1.58;;;17.40;55.50;;;;;;5054313;28;20182;-65
2023/03/25 08:48:27;;;;;;;2.45;1.45;;;17.40;55.30;;;;;;5053987;28;20198;-63
2023/03/25 08:50:52;;;;;;;3.15;1.52;;;17.40;55.40;;;;;;5054309;28;20246;-63
2023/03/25 08:53:18;;;;;;;4.95;1.50;;;17.40;55.60;;;;;;5054401;28;20214;-64
2023/03/25 08:55:44;;;;;;;3.90;1.50;;;17.40;55.50;;;;;;5053207;28;20179;-65
2023/03/25 08:58:10;;;;;;;3.83;1.35;;;17.40;56.20;;;;;;5054131;28;20280;-67
2023/03/25 09:00:36;;;;;;;4.30;1.30;;;17.40;55.60;;;;;;5054284;28;20205;-66
2023/03/25 09:03:03;;;;;;;3.45;1.80;;;17.40;55.70;;;;;;5052028;28;20548;-65
2023/03/25 09:05:28;;;;;;;3.58;1.70;;;17.30;55.80;;;;;;5054114;28;20182;-64
2023/03/25 09:07:54;;;;;;;2.75;1.20;;;17.30;56.10;;;;;;5053855;28;20254;-64
2023/03/25 09:10:20;;;;;;;4.00;1.65;;;17.20;56.00;;;;;;5053278;28;20601;-65
2023/03/25 09:12:45;;;;;;;4.50;1.52;;;17.20;56.10;;;;;;5053582;28;20235;-66
2023/03/25 09:15:11;;;;;;;4.47;1.45;;;17.20;56.20;;;;;;5054006;28;20171;-66
2023/03/25 09:17:37;;;;;;;4.93;1.73;;;17.10;56.30;;;;;;5053051;28;20258;-66
2023/03/25 09:20:04;;;;;;;2.58;1.67;;;17.10;56.30;;;;;;5053145;28;20693;-66
2023/03/25 09:22:30;;;;;;;2.53;1.50;;;17.00;56.50;;;;;;5053744;28;20211;-65
2023/03/25 09:24:56;;;;;;;5.05;1.60;;;17.00;56.60;;;;;;5052227;28;20202;-65
2023/03/25 09:27:21;;;;;;;3.00;1.75;;;17.00;57.00;;;;;;5053563;28;20175;-65
2023/03/25 09:29:50;;;;;;;3.40;1.80;;;16.90;56.80;;;;;;5053398;28;20178;-66
2023/03/25 09:32:17;;;;;;;5.30;1.60;;;16.90;57.00;;;;;;5052841;28;20195;-67
2023/03/25 09:34:43;;;;;;;3.53;1.70;;;16.90;57.10;;;;;;5053149;28;20256;-67
2023/03/25 09:37:09;;;;;;;5.00;2.10;;;16.90;57.10;;;;;;5053640;28;20549;-68
2023/03/25 09:39:35;;;;;;;5.10;2.15;;;16.90;57.20;;;;;;5052564;28;20685;-66
2023/03/25 09:42:09;;;;;;;3.53;1.48;;;16.80;57.20;;;;;;5053023;28;20270;-67
2023/03/25 09:44:51;;;;;;;3.38;1.42;;;16.80;57.20;;;;;;5052772;28;20174;-64
2023/03/25 09:47:16;;;;;;;3.88;1.73;;;16.80;57.20;;;;;;5052341;28;20178;-65
2023/03/25 09:49:44;;;;;;;5.03;1.40;;;16.80;57.10;;;;;;5035231;28;20484;-65
2023/03/25 09:52:16;;;;;;;2.97;1.35;;;16.80;57.20;;;;;;5051075;28;20206;-65
2023/03/25 09:54:46;;;;;;;4.40;1.50;;;16.80;57.10;;;;;;5036061;28;20265;-66
2023/03/25 09:57:13;;;;;;;5.95;1.85;;;16.90;57.10;;;;;;5035698;28;20175;-66
2023/03/25 09:59:45;;;;;;;4.25;1.60;;;17.00;57.00;;;;;;5034736;28;20182;-66
2023/03/25 10:02:29;;;;;;;4.53;1.70;;;17.00;56.90;;;;;;5035650;28;20175;-65
2023/03/25 10:05:33;;;;;;;4.82;1.75;;;17.00;57.20;;;;;;5051580;28;20175;-64
2023/03/25 10:08:47;;;;;;;3.40;1.60;;;17.00;57.20;;;;;;5052610;28;20174;-63
2023/03/25 10:11:27;;;;;;;4.20;1.30;;;17.00;57.30;;;;;;5047601;28;20241;-63
2023/03/25 10:13:58;;;;;;;3.63;1.45;;;17.10;57.20;;;;;;5050513;28;20218;-63
2023/03/25 10:16:57;;;;;;;4.15;1.80;;;17.20;56.90;;;;;;5051556;28;20181;-63
2023/03/25 10:19:30;;;;;;;4.60;1.95;;;17.30;56.70;;;;;;5052467;28;20222;-63
2023/03/25 10:22:00;;;;;;;5.47;1.63;;;17.30;56.50;;;;;;5051858;28;20197;-64
2023/03/25 10:24:38;;;;;;;4.60;1.55;;;17.30;56.60;;;;;;5051516;28;20179;-63
2023/03/25 10:27:12;;;;;;;4.47;1.95;;;17.30;56.60;;;;;;5034601;28;20217;-63
2023/03/25 10:29:40;;;;;;;6.20;1.67;;;17.40;56.60;;;;;;5051293;28;20236;-62
2023/03/25 10:32:10;;;;;;;4.53;1.58;;;17.40;56.60;;;;;;5034403;28;20222;-63
2023/03/25 10:34:42;;;;;;;5.68;1.50;;;17.40;56.70;;;;;;5050745;28;20237;-62
2023/03/25 10:37:11;;;;;;;4.30;1.38;;;17.40;57.40;;;;;;5034911;28;20183;-67
2023/03/25 10:39:42;;;;;;;3.10;1.70;;;17.30;57.00;;;;;;5052475;28;20178;-66
2023/03/25 10:42:23;;;;;;;5.68;1.60;;;17.30;56.90;;;;;;5051843;28;20171;-66
2023/03/25 10:44:49;;;;;;;7.90;1.73;;;17.40;57.00;;;;;;5051283;28;20266;-63
2023/03/25 10:47:19;;;;;;;5.63;1.80;;;17.30;57.00;;;;;;5052463;28;20234;-66
2023/03/25 10:49:45;;;;;;;5.28;2.10;;;17.30;57.30;;;;;;5033659;28;20630;-65
2023/03/25 10:52:10;;;;;;;4.80;2.33;;;17.20;57.40;;;;;;5051107;28;20226;-65
2023/03/25 10:54:38;;;;;;;8.55;2.17;;;17.10;57.50;;;;;;5052552;28;20645;-65
2023/03/25 10:57:06;;;;;;;6.60;2.30;;;17.10;57.90;;;;;;5033686;28;20190;-64
2023/03/25 10:59:40;;;;;;;5.35;1.52;;;17.10;57.70;;;;;;5051362;28;20229;-66
2023/03/25 11:02:32;;;;;;;3.42;1.70;;;17.00;57.60;;;;;;5034356;28;20179;-64
2023/03/25 11:05:03;;;;;;;6.45;2.13;;;17.00;57.60;;;;;;5050713;28;20175;-65
2023/03/25 11:07:40;;;;;;;5.32;2.13;;;17.00;57.80;;;;;;5052105;28;20183;-62
2023/03/25 11:10:21;;;;;;;4.03;1.85;;;17.00;57.90;;;;;;5050117;28;20177;-66
2023/03/25 11:12:48;;;;;;;7.68;1.55;;;16.90;57.80;;;;;;5051936;28;20202;-62
2023/03/25 11:15:15;;;;;;;7.40;1.90;;;16.90;57.80;;;;;;5051096;28;20182;-66
2023/03/25 11:17:42;;;;;;;5.22;1.80;;;16.90;57.80;;;;;;5051328;28;20182;-66
2023/03/25 11:20:18;;;;;;;3.75;1.75;;;16.90;57.80;;;;;;5050775;28;20235;-66
2023/03/25 11:22:46;;;;;;;7.50;1.98;;;16.90;57.80;;;;;;5050635;28;20182;-65
2023/03/25 11:25:28;;;;;;;3.47;1.40;;;17.00;57.80;;;;;;5051690;28;20193;-62
2023/03/25 11:28:08;;;;;;;8.35;2.28;;;17.00;57.80;;;;;;5054687;28;20266;-60
2023/03/25 11:30:34;;;;;;;6.70;2.00;;;17.00;57.80;;;;;;5054026;28;20187;-63
2023/03/25 11:33:11;;;;;;;3.70;1.90;;;17.00;58.00;;;;;;5055818;28;20211;-68
2023/03/25 11:35:41;;;;;;;7.20;1.95;;;17.00;57.90;;;;;;5054837;28;20194;-68
2023/03/25 11:38:19;;;;;;;10.98;2.33;;;17.00;58.00;;;;;;5054662;28;20171;-69
2023/03/25 11:40:55;;;;;;;6.55;2.20;;;17.00;58.10;;;;;;5055500;28;20181;-69
2023/03/25 11:43:21;;;;;;;7.50;1.77;;;16.90;58.10;;;;;;5038228;28;20257;-69
2023/03/25 11:45:48;;;;;;;4.13;1.60;;;16.90;58.30;;;;;;5037072;28;20182;-68
2023/03/25 11:48:21;;;;;;;6.85;1.88;;;16.90;58.30;;;;;;5055765;28;20257;-68
2023/03/25 11:50:51;;;;;;;3.85;1.88;;;16.90;58.30;;;;;;5054224;28;20229;-68
2023/03/25 11:53:17;;;;;;;4.60;2.10;;;16.90;58.30;;;;;;5037537;28;20313;-66
2023/03/25 11:55:52;;;;;;;3.78;2.03;;;16.90;58.30;;;;;;5037564;28;20572;-66
2023/03/25 11:58:20;;;;;;;7.28;2.10;;;17.00;58.10;;;;;;5054897;28;20361;-67
2023/03/25 12:00:52;;;;;;;4.22;1.50;;;17.00;58.10;;;;;;5053828;28;20666;-67
2023/03/25 12:03:19;;;;;;;7.18;2.38;;;17.00;58.60;;;;;;5055388;28;20179;-66
2023/03/25 12:06:10;;;;;;;8.05;1.85;;;17.10;57.90;;;;;;5054136;28;20171;-66
2023/03/25 12:08:58;;;;;;;6.20;2.17;;;17.10;57.70;;;;;;5053887;28;20179;-66
2023/03/25 12:11:45;;;;;;;4.82;1.88;;;17.10;57.70;;;;;;5055480;28;20206;-66
2023/03/25 12:14:26;;;;;;;7.72;1.88;;;17.10;57.60;;;;;;5054406;28;20641;-65
2023/03/25 12:17:22;;;;;;;5.07;1.58;;;17.10;57.60;;;;;;5055024;28;20181;-66
2023/03/25 12:19:58;;;;;;;5.30;1.80;;;17.20;57.60;;;;;;5037008;28;20238;-66
2023/03/25 12:22:41;;;;;;;4.43;2.17;;;17.10;57.50;;;;;;5053703;28;20178;-66
2023/03/25 12:25:40;;;;;;;5.88;1.77;;;17.10;57.60;;;;;;5038082;28;20548;-65
2023/03/25 12:28:33;;;;;;;5.07;2.00;;;17.10;57.60;;;;;;5054004;28;20236;-65
2023/03/25 12:31:06;;;;;;;5.80;2.05;;;17.10;57.50;;;;;;5054776;28;20172;-65
2023/03/25 12:33:46;;;;;;;5.10;1.65;;;17.20;57.40;;;;;;5054231;28;20306;-67
2023/03/25 12:36:33;;;;;;;6.18;1.83;;;17.20;57.20;;;;;;5053708;28;20179;-66
2023/03/25 12:39:00;;;;;;;6.18;2.22;;;17.20;57.30;;;;;;5054402;28;20186;-65
2023/03/25 12:41:31;;;;;;;5.32;1.48;;;17.10;57.50;;;;;;5054131;28;20175;-66
2023/03/25 12:44:18;;;;;;;4.25;1.80;;;17.00;57.50;;;;;;5054527;28;20222;-66
2023/03/25 12:47:11;;;;;;;4.68;1.88;;;17.00;57.60;;;;;;5054247;28;20556;-65
2023/03/25 12:49:41;;;;;;;8.05;1.80;;;16.90;57.60;;;;;;5052829;28;20179;-65
2023/03/25 12:52:25;;;;;;;3.78;1.70;;;16.90;57.70;;;;;;5052863;28;20609;-66
2023/03/25 12:54:58;;;;;;;2.97;1.52;;;16.90;57.80;;;;;;5053426;28;20266;-66
2023/03/25 12:57:42;;;;;;;6.03;2.22;;;16.80;57.70;;;;;;5053251;28;20202;-66
2023/03/25 13:00:14;;;;;;;4.85;1.38;;;16.80;57.80;;;;;;5054430;28;20266;-67
2023/03/25 13:03:13;;;;;;;3.85;1.80;;;16.70;57.90;;;;;;5053597;28;20195;-66